sensor_id;sensor_type;location;lat;lon;timestamp;temperature;humidity
1694;DHT22;844;47.058;15.472;2022-08-25T00:00:20;20.30;99.90
1694;DHT22;844;47.058;15.472;2022-08-25T00:02:50;20.30;99.90
1694;DHT22;844;47.058;15.472;2022-08-25T00:05:27;20.40;99.90
1694;DHT22;844;47.058;15.472;2022-08-25T00:08:00;20.50;99.90
1694;DHT22;844;47.058;15.472;2022-08-25T00:10:30;20.60;99.90
1694;DHT22;844;47.058;15.472;2022-08-25T00:13:01;20.50;99.90
1694;DHT22;844;47.058;15.472;2022-08-25T00:15:31;20.30;99.90
1694;DHT22;844;47.058;15.472;2022-08-25T00:18:00;20.30;99.90
1694;DHT22;844;47.058;15.472;2022-08-25T00:20:37;20.30;99.90
1694;DHT22;844;47.058;15.472;2022-08-25T00:23:14;20.50;99.90
1694;DHT22;844;47.058;15.472;2022-08-25T00:25:44;20.50;99.90
1694;DHT22;844;47.058;15.472;2022-08-25T00:28:15;20.60;99.90
1694;DHT22;844;47.058;15.472;2022-08-25T00:30:46;20.60;99.90
1694;DHT22;844;47.058;15.472;2022-08-25T00:33:16;20.60;99.90
1694;DHT22;844;47.058;15.472;2022-08-25T00:35:46;20.60;99.90
1694;DHT22;844;47.058;15.472;2022-08-25T00:38:15;20.60;99.90
1694;DHT22;844;47.058;15.472;2022-08-25T00:40:44;20.60;99.90
1694;DHT22;844;47.058;15.472;2022-08-25T00:43:43;20.60;99.90
1694;DHT22;844;47.058;15.472;2022-08-25T00:46:16;20.40;99.90
1694;DHT22;844;47.058;15.472;2022-08-25T00:48:51;20.40;99.90
1694;DHT22;844;47.058;15.472;2022-08-25T00:51:30;20.40;99.90
1694;DHT22;844;47.058;15.472;2022-08-25T00:54:02;20.40;99.90
1694;DHT22;844;47.058;15.472;2022-08-25T00:56:32;20.50;99.90
1694;DHT22;844;47.058;15.472;2022-08-25T00:59:04;20.50;99.90
1694;DHT22;844;47.058;15.472;2022-08-25T01:01:33;20.40;99.90
1694;DHT22;844;47.058;15.472;2022-08-25T01:04:03;20.30;99.90
1694;DHT22;844;47.058;15.472;2022-08-25T01:06:34;20.30;99.90
1694;DHT22;844;47.058;15.472;2022-08-25T01:09:05;20.40;99.90
1694;DHT22;844;47.058;15.472;2022-08-25T01:11:34;20.40;99.90
1694;DHT22;844;47.058;15.472;2022-08-25T01:14:06;20.40;99.90
1694;DHT22;844;47.058;15.472;2022-08-25T01:16:38;20.50;99.90
1694;DHT22;844;47.058;15.472;2022-08-25T01:19:12;20.30;99.90
1694;DHT22;844;47.058;15.472;2022-08-25T01:21:46;20.30;99.90
1694;DHT22;844;47.058;15.472;2022-08-25T01:24:29;20.20;99.90
1694;DHT22;844;47.058;15.472;2022-08-25T01:27:05;20.30;99.90
1694;DHT22;844;47.058;15.472;2022-08-25T01:29:35;20.30;99.90
1694;DHT22;844;47.058;15.472;2022-08-25T01:32:06;20.30;99.90
1694;DHT22;844;47.058;15.472;2022-08-25T01:34:41;20.20;99.90
1694;DHT22;844;47.058;15.472;2022-08-25T01:37:15;20.10;99.90
1694;DHT22;844;47.058;15.472;2022-08-25T01:39:45;20.20;99.90
1694;DHT22;844;47.058;15.472;2022-08-25T01:42:32;20.20;99.90
1694;DHT22;844;47.058;15.472;2022-08-25T01:45:06;20.30;99.90
1694;DHT22;844;47.058;15.472;2022-08-25T01:47:37;20.20;99.90
1694;DHT22;844;47.058;15.472;2022-08-25T01:50:07;20.10;99.90
1694;DHT22;844;47.058;15.472;2022-08-25T01:52:45;20.00;99.90
1694;DHT22;844;47.058;15.472;2022-08-25T01:55:18;19.90;99.90
1694;DHT22;844;47.058;15.472;2022-08-25T01:57:47;19.90;99.90
1694;DHT22;844;47.058;15.472;2022-08-25T02:00:18;19.80;99.90
1694;DHT22;844;47.058;15.472;2022-08-25T02:02:48;19.80;99.90
1694;DHT22;844;47.058;15.472;2022-08-25T02:05:21;19.80;99.90
1694;DHT22;844;47.058;15.472;2022-08-25T02:07:52;19.80;99.90
1694;DHT22;844;47.058;15.472;2022-08-25T02:10:22;19.70;99.90
1694;DHT22;844;47.058;15.472;2022-08-25T02:12:51;19.70;99.90
1694;DHT22;844;47.058;15.472;2022-08-25T02:15:20;19.80;99.90
1694;DHT22;844;47.058;15.472;2022-08-25T02:17:49;19.90;99.90
1694;DHT22;844;47.058;15.472;2022-08-25T02:20:19;20.00;99.90
1694;DHT22;844;47.058;15.472;2022-08-25T02:22:51;20.00;99.90
1694;DHT22;844;47.058;15.472;2022-08-25T02:25:23;20.00;99.90
1694;DHT22;844;47.058;15.472;2022-08-25T02:27:52;20.00;99.90
1694;DHT22;844;47.058;15.472;2022-08-25T02:30:22;20.00;99.90
1694;DHT22;844;47.058;15.472;2022-08-25T02:32:51;20.10;99.90
1694;DHT22;844;47.058;15.472;2022-08-25T02:35:21;20.10;99.90
1694;DHT22;844;47.058;15.472;2022-08-25T02:37:52;20.00;99.90
1694;DHT22;844;47.058;15.472;2022-08-25T02:40:21;20.00;99.90
1694;DHT22;844;47.058;15.472;2022-08-25T02:42:50;20.00;99.90
1694;DHT22;844;47.058;15.472;2022-08-25T02:45:20;20.10;99.90
1694;DHT22;844;47.058;15.472;2022-08-25T02:47:49;20.00;99.90
1694;DHT22;844;47.058;15.472;2022-08-25T02:50:19;20.00;99.90
1694;DHT22;844;47.058;15.472;2022-08-25T02:52:48;19.90;99.90
1694;DHT22;844;47.058;15.472;2022-08-25T02:55:20;19.90;99.90
1694;DHT22;844;47.058;15.472;2022-08-25T02:57:50;20.00;99.90
1694;DHT22;844;47.058;15.472;2022-08-25T03:00:19;20.10;99.90
1694;DHT22;844;47.058;15.472;2022-08-25T03:02:49;20.20;99.90
1694;DHT22;844;47.058;15.472;2022-08-25T03:05:23;20.30;99.90
1694;DHT22;844;47.058;15.472;2022-08-25T03:07:53;20.10;99.90
1694;DHT22;844;47.058;15.472;2022-08-25T03:10:25;20.20;99.90
1694;DHT22;844;47.058;15.472;2022-08-25T03:12:54;20.20;99.90
1694;DHT22;844;47.058;15.472;2022-08-25T03:15:23;20.10;99.90
1694;DHT22;844;47.058;15.472;2022-08-25T03:17:57;20.00;99.90
1694;DHT22;844;47.058;15.472;2022-08-25T03:20:30;20.10;99.90
1694;DHT22;844;47.058;15.472;2022-08-25T03:23:02;20.20;99.90
1694;DHT22;844;47.058;15.472;2022-08-25T03:25:33;20.30;99.90
1694;DHT22;844;47.058;15.472;2022-08-25T03:28:22;20.20;99.90
1694;DHT22;844;47.058;15.472;2022-08-25T03:30:56;20.20;99.90
1694;DHT22;844;47.058;15.472;2022-08-25T03:33:27;20.10;99.90
1694;DHT22;844;47.058;15.472;2022-08-25T03:35:56;19.90;99.90
1694;DHT22;844;47.058;15.472;2022-08-25T03:38:26;19.90;99.90
1694;DHT22;844;47.058;15.472;2022-08-25T03:40:57;19.90;99.90
1694;DHT22;844;47.058;15.472;2022-08-25T03:43:26;20.00;99.90
1694;DHT22;844;47.058;15.472;2022-08-25T03:45:56;20.10;99.90
1694;DHT22;844;47.058;15.472;2022-08-25T03:48:25;20.10;99.90
1694;DHT22;844;47.058;15.472;2022-08-25T03:50:55;20.20;99.90
1694;DHT22;844;47.058;15.472;2022-08-25T03:53:24;20.20;99.90
1694;DHT22;844;47.058;15.472;2022-08-25T03:55:53;20.20;99.90
1694;DHT22;844;47.058;15.472;2022-08-25T03:58:28;20.30;99.90
1694;DHT22;844;47.058;15.472;2022-08-25T04:01:00;20.20;99.90
1694;DHT22;844;47.058;15.472;2022-08-25T04:03:29;20.20;99.90
1694;DHT22;844;47.058;15.472;2022-08-25T04:06:00;20.10;99.90
1694;DHT22;844;47.058;15.472;2022-08-25T04:08:29;20.10;99.90
1694;DHT22;844;47.058;15.472;2022-08-25T04:10:58;20.20;99.90
1694;DHT22;844;47.058;15.472;2022-08-25T04:13:39;20.30;99.90
1694;DHT22;844;47.058;15.472;2022-08-25T04:16:25;20.30;99.90
1694;DHT22;844;47.058;15.472;2022-08-25T04:18:58;20.30;99.90
1694;DHT22;844;47.058;15.472;2022-08-25T04:21:29;20.20;99.90
1694;DHT22;844;47.058;15.472;2022-08-25T04:23:59;20.10;99.90
1694;DHT22;844;47.058;15.472;2022-08-25T04:26:30;20.30;99.90
1694;DHT22;844;47.058;15.472;2022-08-25T04:29:03;20.20;99.90
1694;DHT22;844;47.058;15.472;2022-08-25T04:31:33;20.20;99.90
1694;DHT22;844;47.058;15.472;2022-08-25T04:34:04;20.30;99.90
1694;DHT22;844;47.058;15.472;2022-08-25T04:36:54;20.30;99.90
1694;DHT22;844;47.058;15.472;2022-08-25T04:39:23;20.30;99.90
1694;DHT22;844;47.058;15.472;2022-08-25T04:41:52;20.40;99.90
1694;DHT22;844;47.058;15.472;2022-08-25T04:44:24;20.40;99.90
1694;DHT22;844;47.058;15.472;2022-08-25T04:46:53;20.20;99.90
1694;DHT22;844;47.058;15.472;2022-08-25T04:49:22;20.20;99.90
1694;DHT22;844;47.058;15.472;2022-08-25T04:51:51;20.30;99.90
1694;DHT22;844;47.058;15.472;2022-08-25T04:54:20;20.20;99.90
1694;DHT22;844;47.058;15.472;2022-08-25T04:56:50;20.20;99.90
1694;DHT22;844;47.058;15.472;2022-08-25T04:59:26;20.30;99.90
1694;DHT22;844;47.058;15.472;2022-08-25T05:01:57;20.20;99.90
1694;DHT22;844;47.058;15.472;2022-08-25T05:04:33;20.30;99.90
1694;DHT22;844;47.058;15.472;2022-08-25T05:07:03;20.30;99.90
1694;DHT22;844;47.058;15.472;2022-08-25T05:09:33;20.30;99.90
1694;DHT22;844;47.058;15.472;2022-08-25T05:12:04;20.40;99.90
1694;DHT22;844;47.058;15.472;2022-08-25T05:14:35;20.40;99.90
1694;DHT22;844;47.058;15.472;2022-08-25T05:17:04;20.30;99.90
1694;DHT22;844;47.058;15.472;2022-08-25T05:19:33;20.30;99.90
1694;DHT22;844;47.058;15.472;2022-08-25T05:22:03;20.30;99.90
1694;DHT22;844;47.058;15.472;2022-08-25T05:24:32;20.40;99.90
1694;DHT22;844;47.058;15.472;2022-08-25T05:27:02;20.40;99.90
1694;DHT22;844;47.058;15.472;2022-08-25T05:29:31;20.50;99.90
1694;DHT22;844;47.058;15.472;2022-08-25T05:32:02;20.50;99.90
1694;DHT22;844;47.058;15.472;2022-08-25T05:34:32;20.40;99.90
1694;DHT22;844;47.058;15.472;2022-08-25T05:37:00;20.40;99.90
1694;DHT22;844;47.058;15.472;2022-08-25T05:39:30;20.40;99.90
1694;DHT22;844;47.058;15.472;2022-08-25T05:42:00;20.40;99.90
1694;DHT22;844;47.058;15.472;2022-08-25T05:44:29;20.40;99.90
1694;DHT22;844;47.058;15.472;2022-08-25T05:46:58;20.40;99.90
1694;DHT22;844;47.058;15.472;2022-08-25T05:49:31;20.50;99.90
1694;DHT22;844;47.058;15.472;2022-08-25T05:52:00;20.50;99.90
1694;DHT22;844;47.058;15.472;2022-08-25T05:54:31;20.50;99.90
1694;DHT22;844;47.058;15.472;2022-08-25T05:57:00;20.50;99.90
1694;DHT22;844;47.058;15.472;2022-08-25T05:59:29;20.50;99.90
1694;DHT22;844;47.058;15.472;2022-08-25T06:01:58;20.60;99.90
1694;DHT22;844;47.058;15.472;2022-08-25T06:04:45;20.60;99.90
1694;DHT22;844;47.058;15.472;2022-08-25T06:07:14;20.60;99.90
1694;DHT22;844;47.058;15.472;2022-08-25T06:09:44;20.70;99.90
1694;DHT22;844;47.058;15.472;2022-08-25T06:12:16;20.70;99.90
1694;DHT22;844;47.058;15.472;2022-08-25T06:14:47;20.80;99.90
1694;DHT22;844;47.058;15.472;2022-08-25T06:17:16;20.80;99.90
1694;DHT22;844;47.058;15.472;2022-08-25T06:19:46;20.80;99.90
1694;DHT22;844;47.058;15.472;2022-08-25T06:22:16;20.80;99.90
1694;DHT22;844;47.058;15.472;2022-08-25T06:24:45;20.90;99.90
1694;DHT22;844;47.058;15.472;2022-08-25T06:27:13;20.90;99.90
1694;DHT22;844;47.058;15.472;2022-08-25T06:29:42;20.90;99.90
1694;DHT22;844;47.058;15.472;2022-08-25T06:32:11;21.00;99.90
1694;DHT22;844;47.058;15.472;2022-08-25T06:34:40;21.00;99.90
1694;DHT22;844;47.058;15.472;2022-08-25T06:37:11;21.00;99.90
1694;DHT22;844;47.058;15.472;2022-08-25T06:39:40;21.00;99.90
1694;DHT22;844;47.058;15.472;2022-08-25T06:42:10;21.00;99.90
1694;DHT22;844;47.058;15.472;2022-08-25T06:44:40;21.10;99.90
1694;DHT22;844;47.058;15.472;2022-08-25T06:47:09;21.10;99.90
1694;DHT22;844;47.058;15.472;2022-08-25T06:49:38;21.10;99.90
1694;DHT22;844;47.058;15.472;2022-08-25T06:52:08;21.10;99.90
1694;DHT22;844;47.058;15.472;2022-08-25T06:54:42;21.20;99.90
1694;DHT22;844;47.058;15.472;2022-08-25T06:57:15;21.20;99.90
1694;DHT22;844;47.058;15.472;2022-08-25T06:59:44;21.20;99.90
1694;DHT22;844;47.058;15.472;2022-08-25T07:02:19;21.30;99.90
1694;DHT22;844;47.058;15.472;2022-08-25T07:04:48;21.30;99.90
1694;DHT22;844;47.058;15.472;2022-08-25T07:07:20;21.30;99.90
1694;DHT22;844;47.058;15.472;2022-08-25T07:09:51;21.30;99.90
1694;DHT22;844;47.058;15.472;2022-08-25T07:12:20;21.40;99.90
1694;DHT22;844;47.058;15.472;2022-08-25T07:14:51;21.40;99.90
1694;DHT22;844;47.058;15.472;2022-08-25T07:17:40;21.50;99.90
1694;DHT22;844;47.058;15.472;2022-08-25T07:20:10;21.50;99.90
1694;DHT22;844;47.058;15.472;2022-08-25T07:22:40;21.50;99.90
1694;DHT22;844;47.058;15.472;2022-08-25T07:25:11;21.50;99.90
1694;DHT22;844;47.058;15.472;2022-08-25T07:27:41;21.50;99.90
1694;DHT22;844;47.058;15.472;2022-08-25T07:30:10;21.50;99.90
1694;DHT22;844;47.058;15.472;2022-08-25T07:32:40;21.60;99.90
1694;DHT22;844;47.058;15.472;2022-08-25T07:35:09;21.50;99.90
1694;DHT22;844;47.058;15.472;2022-08-25T07:37:52;21.60;99.90
1694;DHT22;844;47.058;15.472;2022-08-25T07:40:28;21.60;99.90
1694;DHT22;844;47.058;15.472;2022-08-25T07:43:00;21.70;99.90
1694;DHT22;844;47.058;15.472;2022-08-25T07:45:34;21.70;99.90
1694;DHT22;844;47.058;15.472;2022-08-25T07:48:16;21.70;99.90
1694;DHT22;844;47.058;15.472;2022-08-25T07:50:48;21.70;99.90
1694;DHT22;844;47.058;15.472;2022-08-25T07:53:18;21.80;99.90
1694;DHT22;844;47.058;15.472;2022-08-25T07:55:50;21.80;99.90
1694;DHT22;844;47.058;15.472;2022-08-25T07:58:19;21.90;99.90
1694;DHT22;844;47.058;15.472;2022-08-25T08:00:49;22.00;99.90
1694;DHT22;844;47.058;15.472;2022-08-25T08:03:20;22.00;99.90
1694;DHT22;844;47.058;15.472;2022-08-25T08:06:11;21.90;99.90
1694;DHT22;844;47.058;15.472;2022-08-25T08:08:43;21.90;99.90
1694;DHT22;844;47.058;15.472;2022-08-25T08:11:18;21.90;99.90
1694;DHT22;844;47.058;15.472;2022-08-25T08:13:50;22.00;99.90
1694;DHT22;844;47.058;15.472;2022-08-25T08:16:21;21.90;99.90
1694;DHT22;844;47.058;15.472;2022-08-25T08:18:52;22.00;99.90
1694;DHT22;844;47.058;15.472;2022-08-25T08:21:24;21.90;99.90
1694;DHT22;844;47.058;15.472;2022-08-25T08:23:56;21.90;99.90
1694;DHT22;844;47.058;15.472;2022-08-25T08:26:28;22.00;99.90
1694;DHT22;844;47.058;15.472;2022-08-25T08:29:17;21.90;99.90
1694;DHT22;844;47.058;15.472;2022-08-25T08:31:48;22.00;99.90
1694;DHT22;844;47.058;15.472;2022-08-25T08:34:17;22.10;99.90
1694;DHT22;844;47.058;15.472;2022-08-25T08:36:51;22.00;99.90
1694;DHT22;844;47.058;15.472;2022-08-25T08:39:21;22.10;99.90
1694;DHT22;844;47.058;15.472;2022-08-25T08:41:59;22.10;99.90
1694;DHT22;844;47.058;15.472;2022-08-25T08:45:02;22.20;99.90
1694;DHT22;844;47.058;15.472;2022-08-25T08:47:57;22.20;99.90
1694;DHT22;844;47.058;15.472;2022-08-25T08:50:37;22.30;99.90
1694;DHT22;844;47.058;15.472;2022-08-25T08:53:13;22.40;99.90
1694;DHT22;844;47.058;15.472;2022-08-25T08:55:51;22.50;99.90
1694;DHT22;844;47.058;15.472;2022-08-25T08:58:29;22.50;99.90
1694;DHT22;844;47.058;15.472;2022-08-25T09:01:04;22.50;99.90
1694;DHT22;844;47.058;15.472;2022-08-25T09:03:39;22.50;99.90
1694;DHT22;844;47.058;15.472;2022-08-25T09:06:16;22.60;99.90
1694;DHT22;844;47.058;15.472;2022-08-25T09:08:47;22.60;99.90
1694;DHT22;844;47.058;15.472;2022-08-25T09:11:23;22.80;99.90
1694;DHT22;844;47.058;15.472;2022-08-25T09:14:17;22.80;99.90
1694;DHT22;844;47.058;15.472;2022-08-25T09:17:07;22.70;99.90
1694;DHT22;844;47.058;15.472;2022-08-25T09:20:07;22.80;99.90
1694;DHT22;844;47.058;15.472;2022-08-25T09:22:52;22.70;99.90
1694;DHT22;844;47.058;15.472;2022-08-25T09:25:31;22.80;99.90
1694;DHT22;844;47.058;15.472;2022-08-25T09:28:27;22.80;99.90
1694;DHT22;844;47.058;15.472;2022-08-25T09:31:16;22.70;99.90
1694;DHT22;844;47.058;15.472;2022-08-25T09:33:57;22.80;99.90
1694;DHT22;844;47.058;15.472;2022-08-25T09:36:30;22.80;99.90
1694;DHT22;844;47.058;15.472;2022-08-25T09:39:04;22.80;99.90
1694;DHT22;844;47.058;15.472;2022-08-25T09:41:42;22.70;99.90
1694;DHT22;844;47.058;15.472;2022-08-25T09:44:21;22.80;99.90
1694;DHT22;844;47.058;15.472;2022-08-25T09:47:18;22.80;99.90
1694;DHT22;844;47.058;15.472;2022-08-25T09:49:57;22.80;99.90
1694;DHT22;844;47.058;15.472;2022-08-25T09:52:33;22.80;99.90
1694;DHT22;844;47.058;15.472;2022-08-25T09:55:23;22.80;99.90
1694;DHT22;844;47.058;15.472;2022-08-25T09:57:59;22.80;99.90
1694;DHT22;844;47.058;15.472;2022-08-25T10:01:00;22.90;99.90
1694;DHT22;844;47.058;15.472;2022-08-25T10:03:33;22.90;99.90
1694;DHT22;844;47.058;15.472;2022-08-25T10:06:11;22.90;99.90
1694;DHT22;844;47.058;15.472;2022-08-25T10:08:53;22.90;99.90
1694;DHT22;844;47.058;15.472;2022-08-25T10:11:32;22.90;99.90
1694;DHT22;844;47.058;15.472;2022-08-25T10:14:14;22.90;99.90
1694;DHT22;844;47.058;15.472;2022-08-25T10:16:47;22.90;99.90
1694;DHT22;844;47.058;15.472;2022-08-25T10:19:26;22.90;99.90
1694;DHT22;844;47.058;15.472;2022-08-25T10:22:05;23.00;99.90
1694;DHT22;844;47.058;15.472;2022-08-25T10:24:38;23.00;99.90
1694;DHT22;844;47.058;15.472;2022-08-25T10:27:22;23.00;99.90
1694;DHT22;844;47.058;15.472;2022-08-25T10:30:07;23.10;99.90
1694;DHT22;844;47.058;15.472;2022-08-25T10:33:03;23.20;99.90
1694;DHT22;844;47.058;15.472;2022-08-25T10:35:51;23.30;99.90
1694;DHT22;844;47.058;15.472;2022-08-25T10:38:35;23.60;99.90
1694;DHT22;844;47.058;15.472;2022-08-25T10:41:26;23.80;99.90
1694;DHT22;844;47.058;15.472;2022-08-25T10:44:12;24.00;99.90
1694;DHT22;844;47.058;15.472;2022-08-25T10:47:33;24.10;99.90
1694;DHT22;844;47.058;15.472;2022-08-25T10:50:17;24.30;99.90
1694;DHT22;844;47.058;15.472;2022-08-25T10:53:07;24.50;99.90
1694;DHT22;844;47.058;15.472;2022-08-25T10:55:51;24.80;99.90
1694;DHT22;844;47.058;15.472;2022-08-25T10:58:54;25.00;99.90
1694;DHT22;844;47.058;15.472;2022-08-25T11:01:40;25.10;99.90
1694;DHT22;844;47.058;15.472;2022-08-25T11:04:23;25.30;99.90
1694;DHT22;844;47.058;15.472;2022-08-25T11:07:01;25.60;99.90
1694;DHT22;844;47.058;15.472;2022-08-25T11:09:40;25.70;99.90
1694;DHT22;844;47.058;15.472;2022-08-25T11:12:15;25.70;99.90
1694;DHT22;844;47.058;15.472;2022-08-25T11:14:50;25.70;99.90
1694;DHT22;844;47.058;15.472;2022-08-25T11:17:25;25.90;99.90
1694;DHT22;844;47.058;15.472;2022-08-25T11:19:59;26.10;99.90
1694;DHT22;844;47.058;15.472;2022-08-25T11:22:41;26.00;99.90
1694;DHT22;844;47.058;15.472;2022-08-25T11:25:18;26.10;99.90
1694;DHT22;844;47.058;15.472;2022-08-25T11:27:56;26.20;99.90
1694;DHT22;844;47.058;15.472;2022-08-25T11:30:28;26.30;99.90
1694;DHT22;844;47.058;15.472;2022-08-25T11:32:58;26.40;99.90
1694;DHT22;844;47.058;15.472;2022-08-25T11:35:31;26.60;99.90
1694;DHT22;844;47.058;15.472;2022-08-25T11:38:15;26.70;99.90
1694;DHT22;844;47.058;15.472;2022-08-25T11:41:07;26.90;99.90
1694;DHT22;844;47.058;15.472;2022-08-25T11:47:02;27.00;99.90
1694;DHT22;844;47.058;15.472;2022-08-25T11:49:52;27.10;99.90
1694;DHT22;844;47.058;15.472;2022-08-25T11:52:43;27.30;99.90
1694;DHT22;844;47.058;15.472;2022-08-25T11:55:19;27.40;99.90
1694;DHT22;844;47.058;15.472;2022-08-25T12:00:43;27.40;99.90
1694;DHT22;844;47.058;15.472;2022-08-25T12:06:25;27.60;99.90
1694;DHT22;844;47.058;15.472;2022-08-25T12:09:19;27.90;99.90
1694;DHT22;844;47.058;15.472;2022-08-25T12:11:54;28.10;99.90
1694;DHT22;844;47.058;15.472;2022-08-25T12:14:45;28.00;99.90
1694;DHT22;844;47.058;15.472;2022-08-25T12:17:26;27.90;99.90
1694;DHT22;844;47.058;15.472;2022-08-25T12:20:06;27.90;99.90
1694;DHT22;844;47.058;15.472;2022-08-25T12:22:52;27.70;99.90
1694;DHT22;844;47.058;15.472;2022-08-25T12:25:46;27.60;99.90
1694;DHT22;844;47.058;15.472;2022-08-25T12:28:38;27.60;99.90
1694;DHT22;844;47.058;15.472;2022-08-25T12:34:47;27.60;99.90
1694;DHT22;844;47.058;15.472;2022-08-25T12:37:23;27.70;99.90
1694;DHT22;844;47.058;15.472;2022-08-25T12:39:57;28.10;99.90
1694;DHT22;844;47.058;15.472;2022-08-25T12:42:31;28.30;99.90
1694;DHT22;844;47.058;15.472;2022-08-25T12:45:11;28.60;99.90
1694;DHT22;844;47.058;15.472;2022-08-25T12:57:28;30.10;99.90
1694;DHT22;844;47.058;15.472;2022-08-25T13:00:14;30.20;99.90
1694;DHT22;844;47.058;15.472;2022-08-25T13:06:24;29.90;99.90
1694;DHT22;844;47.058;15.472;2022-08-25T13:09:23;29.60;99.90
1694;DHT22;844;47.058;15.472;2022-08-25T13:12:13;29.70;99.90
1694;DHT22;844;47.058;15.472;2022-08-25T13:14:52;29.50;99.90
1694;DHT22;844;47.058;15.472;2022-08-25T13:17:26;29.60;99.90
1694;DHT22;844;47.058;15.472;2022-08-25T13:20:15;30.10;99.90
1694;DHT22;844;47.058;15.472;2022-08-25T13:22:47;30.40;99.90
1694;DHT22;844;47.058;15.472;2022-08-25T13:25:26;30.50;99.90
1694;DHT22;844;47.058;15.472;2022-08-25T13:28:01;30.70;99.90
1694;DHT22;844;47.058;15.472;2022-08-25T13:30:37;30.90;99.90
1694;DHT22;844;47.058;15.472;2022-08-25T13:33:17;31.00;99.90
1694;DHT22;844;47.058;15.472;2022-08-25T13:35:50;31.20;99.90
1694;DHT22;844;47.058;15.472;2022-08-25T13:38:42;31.20;99.90
1694;DHT22;844;47.058;15.472;2022-08-25T13:41:20;31.40;99.90
1694;DHT22;844;47.058;15.472;2022-08-25T13:43:56;31.60;99.90
1694;DHT22;844;47.058;15.472;2022-08-25T13:46:29;31.50;99.90
1694;DHT22;844;47.058;15.472;2022-08-25T13:49:04;31.50;99.90
1694;DHT22;844;47.058;15.472;2022-08-25T13:51:36;31.30;99.90
1694;DHT22;844;47.058;15.472;2022-08-25T13:54:23;31.30;99.90
1694;DHT22;844;47.058;15.472;2022-08-25T13:57:03;31.20;99.90
1694;DHT22;844;47.058;15.472;2022-08-25T13:59:36;31.00;99.90
1694;DHT22;844;47.058;15.472;2022-08-25T14:02:09;30.90;99.90
1694;DHT22;844;47.058;15.472;2022-08-25T14:04:47;30.50;99.90
1694;DHT22;844;47.058;15.472;2022-08-25T14:07:26;30.40;99.90
1694;DHT22;844;47.058;15.472;2022-08-25T14:10:02;30.60;99.90
1694;DHT22;844;47.058;15.472;2022-08-25T14:12:41;30.70;99.90
1694;DHT22;844;47.058;15.472;2022-08-25T14:15:27;30.70;99.90
1694;DHT22;844;47.058;15.472;2022-08-25T14:18:02;31.20;99.90
1694;DHT22;844;47.058;15.472;2022-08-25T14:20:35;31.30;99.90
1694;DHT22;844;47.058;15.472;2022-08-25T14:23:10;31.10;99.90
1694;DHT22;844;47.058;15.472;2022-08-25T14:25:45;31.10;99.90
1694;DHT22;844;47.058;15.472;2022-08-25T14:28:22;31.10;99.90
1694;DHT22;844;47.058;15.472;2022-08-25T14:30:57;31.10;99.90
1694;DHT22;844;47.058;15.472;2022-08-25T14:33:33;31.20;99.90
1694;DHT22;844;47.058;15.472;2022-08-25T14:36:04;31.20;99.90
1694;DHT22;844;47.058;15.472;2022-08-25T14:38:34;31.20;99.90
1694;DHT22;844;47.058;15.472;2022-08-25T14:41:10;30.80;99.90
1694;DHT22;844;47.058;15.472;2022-08-25T14:43:43;30.90;99.90
1694;DHT22;844;47.058;15.472;2022-08-25T14:46:17;30.70;99.90
1694;DHT22;844;47.058;15.472;2022-08-25T14:48:53;30.80;99.90
1694;DHT22;844;47.058;15.472;2022-08-25T14:51:26;30.90;99.90
1694;DHT22;844;47.058;15.472;2022-08-25T14:54:01;31.10;99.90
1694;DHT22;844;47.058;15.472;2022-08-25T14:56:32;31.00;99.90
1694;DHT22;844;47.058;15.472;2022-08-25T14:59:04;31.00;99.90
1694;DHT22;844;47.058;15.472;2022-08-25T15:01:34;30.70;99.90
1694;DHT22;844;47.058;15.472;2022-08-25T15:04:06;30.50;99.90
1694;DHT22;844;47.058;15.472;2022-08-25T15:06:39;30.40;99.90
1694;DHT22;844;47.058;15.472;2022-08-25T15:09:11;30.50;99.90
1694;DHT22;844;47.058;15.472;2022-08-25T15:11:45;30.70;99.90
1694;DHT22;844;47.058;15.472;2022-08-25T15:14:19;30.60;99.90
1694;DHT22;844;47.058;15.472;2022-08-25T15:17:00;30.40;99.90
1694;DHT22;844;47.058;15.472;2022-08-25T15:19:30;30.20;99.90
1694;DHT22;844;47.058;15.472;2022-08-25T15:22:00;30.00;99.90
1694;DHT22;844;47.058;15.472;2022-08-25T15:24:29;29.70;99.90
1694;DHT22;844;47.058;15.472;2022-08-25T15:27:05;29.60;99.90
1694;DHT22;844;47.058;15.472;2022-08-25T15:29:38;29.50;99.90
1694;DHT22;844;47.058;15.472;2022-08-25T15:32:11;29.40;99.90
1694;DHT22;844;47.058;15.472;2022-08-25T15:34:41;29.30;99.90
1694;DHT22;844;47.058;15.472;2022-08-25T15:37:14;29.30;99.90
1694;DHT22;844;47.058;15.472;2022-08-25T15:39:45;29.20;99.90
1694;DHT22;844;47.058;15.472;2022-08-25T15:42:15;29.00;99.90
1694;DHT22;844;47.058;15.472;2022-08-25T15:44:45;29.10;99.90
1694;DHT22;844;47.058;15.472;2022-08-25T15:47:20;29.00;99.90
1694;DHT22;844;47.058;15.472;2022-08-25T15:50:02;28.90;99.90
1694;DHT22;844;47.058;15.472;2022-08-25T15:52:33;28.90;99.90
1694;DHT22;844;47.058;15.472;2022-08-25T15:55:14;28.80;99.90
1694;DHT22;844;47.058;15.472;2022-08-25T15:57:46;28.80;99.90
1694;DHT22;844;47.058;15.472;2022-08-25T16:00:19;28.70;99.90
1694;DHT22;844;47.058;15.472;2022-08-25T16:02:49;28.60;99.90
1694;DHT22;844;47.058;15.472;2022-08-25T16:05:19;28.60;99.90
1694;DHT22;844;47.058;15.472;2022-08-25T16:07:52;28.60;99.90
1694;DHT22;844;47.058;15.472;2022-08-25T16:10:21;28.60;99.90
1694;DHT22;844;47.058;15.472;2022-08-25T16:12:51;28.60;99.90
1694;DHT22;844;47.058;15.472;2022-08-25T16:15:22;28.60;99.90
1694;DHT22;844;47.058;15.472;2022-08-25T16:17:57;28.50;99.90
1694;DHT22;844;47.058;15.472;2022-08-25T16:20:32;28.40;99.90
1694;DHT22;844;47.058;15.472;2022-08-25T16:23:03;28.30;99.90
1694;DHT22;844;47.058;15.472;2022-08-25T16:25:32;28.20;99.90
1694;DHT22;844;47.058;15.472;2022-08-25T16:28:02;28.20;99.90
1694;DHT22;844;47.058;15.472;2022-08-25T16:30:33;27.90;99.90
1694;DHT22;844;47.058;15.472;2022-08-25T16:33:02;27.80;99.90
1694;DHT22;844;47.058;15.472;2022-08-25T16:35:33;27.70;99.90
1694;DHT22;844;47.058;15.472;2022-08-25T16:38:06;27.70;99.90
1694;DHT22;844;47.058;15.472;2022-08-25T16:40:39;27.60;99.90
1694;DHT22;844;47.058;15.472;2022-08-25T16:43:09;27.50;99.90
1694;DHT22;844;47.058;15.472;2022-08-25T16:45:40;27.50;99.90
1694;DHT22;844;47.058;15.472;2022-08-25T16:48:09;27.40;99.90
1694;DHT22;844;47.058;15.472;2022-08-25T16:50:38;27.40;99.90
1694;DHT22;844;47.058;15.472;2022-08-25T16:53:07;27.30;99.90
1694;DHT22;844;47.058;15.472;2022-08-25T16:56:00;27.30;99.90
1694;DHT22;844;47.058;15.472;2022-08-25T16:58:29;27.20;99.90
1694;DHT22;844;47.058;15.472;2022-08-25T17:01:05;27.10;99.90
1694;DHT22;844;47.058;15.472;2022-08-25T17:03:37;27.10;99.90
1694;DHT22;844;47.058;15.472;2022-08-25T17:06:10;27.00;99.90
1694;DHT22;844;47.058;15.472;2022-08-25T17:08:41;26.80;99.90
1694;DHT22;844;47.058;15.472;2022-08-25T17:11:13;26.80;99.90
1694;DHT22;844;47.058;15.472;2022-08-25T17:13:45;26.70;99.90
1694;DHT22;844;47.058;15.472;2022-08-25T17:16:19;26.60;99.90